sensor_id;sensor_type;location;lat;lon;timestamp;temperature;humidity
67027;DHT22;53933;52.142;11.738;2022-10-26T00:01:48;23.10;73.20
67027;DHT22;53933;52.142;11.738;2022-10-26T00:04:15;23.10;73.20
67027;DHT22;53933;52.142;11.738;2022-10-26T00:06:41;23.10;73.20
67027;DHT22;53933;52.142;11.738;2022-10-26T00:09:08;23.10;73.20
67027;DHT22;53933;52.142;11.738;2022-10-26T00:11:35;23.10;73.20
67027;DHT22;53933;52.142;11.738;2022-10-26T00:14:01;23.10;73.20
67027;DHT22;53933;52.142;11.738;2022-10-26T00:16:29;23.10;73.20
67027;DHT22;53933;52.142;11.738;2022-10-26T00:18:56;23.10;73.20
67027;DHT22;53933;52.142;11.738;2022-10-26T00:21:23;23.10;73.20
67027;DHT22;53933;52.142;11.738;2022-10-26T00:23:49;23.10;73.20
67027;DHT22;53933;52.142;11.738;2022-10-26T00:26:16;23.10;73.30
67027;DHT22;53933;52.142;11.738;2022-10-26T00:28:43;23.10;73.30
67027;DHT22;53933;52.142;11.738;2022-10-26T00:31:12;23.10;73.40
67027;DHT22;53933;52.142;11.738;2022-10-26T00:33:40;23.10;73.30
67027;DHT22;53933;52.142;11.738;2022-10-26T00:36:08;23.10;73.30
67027;DHT22;53933;52.142;11.738;2022-10-26T00:38:34;23.10;73.30
67027;DHT22;53933;52.142;11.738;2022-10-26T00:41:01;23.10;73.30
67027;DHT22;53933;52.142;11.738;2022-10-26T00:43:36;23.10;73.30
67027;DHT22;53933;52.142;11.738;2022-10-26T00:46:07;23.10;73.40
67027;DHT22;53933;52.142;11.738;2022-10-26T00:48:35;23.10;73.30
67027;DHT22;53933;52.142;11.738;2022-10-26T00:51:08;23.10;73.30
67027;DHT22;53933;52.142;11.738;2022-10-26T00:53:36;23.10;73.30
67027;DHT22;53933;52.142;11.738;2022-10-26T00:56:03;23.10;73.40
67027;DHT22;53933;52.142;11.738;2022-10-26T00:58:31;23.10;73.40
67027;DHT22;53933;52.142;11.738;2022-10-26T01:00:58;23.10;73.30
67027;DHT22;53933;52.142;11.738;2022-10-26T01:03:25;23.10;73.30
67027;DHT22;53933;52.142;11.738;2022-10-26T01:05:55;23.10;73.30
67027;DHT22;53933;52.142;11.738;2022-10-26T01:08:24;23.10;73.40
67027;DHT22;53933;52.142;11.738;2022-10-26T01:10:53;23.10;73.40
67027;DHT22;53933;52.142;11.738;2022-10-26T01:13:20;23.10;73.50
67027;DHT22;53933;52.142;11.738;2022-10-26T01:15:54;23.10;73.50
67027;DHT22;53933;52.142;11.738;2022-10-26T01:18:29;23.10;73.60
67027;DHT22;53933;52.142;11.738;2022-10-26T01:23:53;23.10;74.00
67027;DHT22;53933;52.142;11.738;2022-10-26T01:26:41;23.00;74.00
67027;DHT22;53933;52.142;11.738;2022-10-26T01:29:33;23.10;74.20
67027;DHT22;53933;52.142;11.738;2022-10-26T01:32:10;23.10;74.30
67027;DHT22;53933;52.142;11.738;2022-10-26T01:34:42;23.10;74.20
67027;DHT22;53933;52.142;11.738;2022-10-26T01:37:12;23.10;74.40
67027;DHT22;53933;52.142;11.738;2022-10-26T01:39:43;23.10;74.30
67027;DHT22;53933;52.142;11.738;2022-10-26T01:42:12;23.10;74.30
67027;DHT22;53933;52.142;11.738;2022-10-26T01:44:44;23.10;74.30
67027;DHT22;53933;52.142;11.738;2022-10-26T01:47:14;23.00;74.20
67027;DHT22;53933;52.142;11.738;2022-10-26T01:49:45;23.10;74.20
67027;DHT22;53933;52.142;11.738;2022-10-26T01:52:13;23.00;74.20
67027;DHT22;53933;52.142;11.738;2022-10-26T01:54:40;23.10;74.20
67027;DHT22;53933;52.142;11.738;2022-10-26T01:57:09;23.00;74.20
67027;DHT22;53933;52.142;11.738;2022-10-26T01:59:46;23.00;74.20
67027;DHT22;53933;52.142;11.738;2022-10-26T02:02:46;23.00;74.20
67027;DHT22;53933;52.142;11.738;2022-10-26T02:05:25;23.00;74.20
67027;DHT22;53933;52.142;11.738;2022-10-26T02:08:03;23.10;74.30
67027;DHT22;53933;52.142;11.738;2022-10-26T02:10:41;23.10;74.20
67027;DHT22;53933;52.142;11.738;2022-10-26T02:13:15;23.00;74.10
67027;DHT22;53933;52.142;11.738;2022-10-26T02:15:48;23.00;74.20
67027;DHT22;53933;52.142;11.738;2022-10-26T02:18:27;23.00;74.20
67027;DHT22;53933;52.142;11.738;2022-10-26T02:21:00;23.10;74.20
67027;DHT22;53933;52.142;11.738;2022-10-26T02:23:30;23.10;74.20
67027;DHT22;53933;52.142;11.738;2022-10-26T02:25:59;23.00;74.20
67027;DHT22;53933;52.142;11.738;2022-10-26T02:28:31;23.00;74.00
67027;DHT22;53933;52.142;11.738;2022-10-26T02:31:00;23.00;74.10
67027;DHT22;53933;52.142;11.738;2022-10-26T02:33:32;23.00;74.10
67027;DHT22;53933;52.142;11.738;2022-10-26T02:36:01;23.00;74.10
67027;DHT22;53933;52.142;11.738;2022-10-26T02:38:29;23.00;74.10
67027;DHT22;53933;52.142;11.738;2022-10-26T02:41:00;23.00;74.10
67027;DHT22;53933;52.142;11.738;2022-10-26T02:43:29;23.00;74.10
67027;DHT22;53933;52.142;11.738;2022-10-26T02:46:06;23.00;74.10
67027;DHT22;53933;52.142;11.738;2022-10-26T02:48:36;23.00;74.10
67027;DHT22;53933;52.142;11.738;2022-10-26T02:51:06;23.00;74.10
67027;DHT22;53933;52.142;11.738;2022-10-26T02:53:41;23.00;74.10
67027;DHT22;53933;52.142;11.738;2022-10-26T02:56:12;23.00;74.10
67027;DHT22;53933;52.142;11.738;2022-10-26T02:58:45;23.00;74.00
67027;DHT22;53933;52.142;11.738;2022-10-26T03:01:14;22.90;74.00
67027;DHT22;53933;52.142;11.738;2022-10-26T03:03:42;22.90;74.00
67027;DHT22;53933;52.142;11.738;2022-10-26T03:06:09;22.90;74.00
67027;DHT22;53933;52.142;11.738;2022-10-26T03:08:36;22.90;73.90
67027;DHT22;53933;52.142;11.738;2022-10-26T03:11:02;22.90;73.90
67027;DHT22;53933;52.142;11.738;2022-10-26T03:13:29;22.90;74.00
67027;DHT22;53933;52.142;11.738;2022-10-26T03:15:56;23.00;74.00
67027;DHT22;53933;52.142;11.738;2022-10-26T03:18:22;23.00;74.00
67027;DHT22;53933;52.142;11.738;2022-10-26T03:20:50;23.00;74.00
67027;DHT22;53933;52.142;11.738;2022-10-26T03:23:17;22.90;73.90
67027;DHT22;53933;52.142;11.738;2022-10-26T03:25:44;22.90;74.70
67027;DHT22;53933;52.142;11.738;2022-10-26T03:28:10;23.00;73.90
67027;DHT22;53933;52.142;11.738;2022-10-26T03:30:37;23.00;74.80
67027;DHT22;53933;52.142;11.738;2022-10-26T03:33:04;22.90;73.90
67027;DHT22;53933;52.142;11.738;2022-10-26T03:35:30;22.90;73.80
67027;DHT22;53933;52.142;11.738;2022-10-26T03:37:58;22.90;73.80
67027;DHT22;53933;52.142;11.738;2022-10-26T03:40:25;23.00;73.90
67027;DHT22;53933;52.142;11.738;2022-10-26T03:42:52;22.90;73.70
67027;DHT22;53933;52.142;11.738;2022-10-26T03:45:18;22.90;73.70
67027;DHT22;53933;52.142;11.738;2022-10-26T03:47:46;22.90;73.70
67027;DHT22;53933;52.142;11.738;2022-10-26T03:50:16;22.90;73.80
67027;DHT22;53933;52.142;11.738;2022-10-26T03:52:43;22.90;74.70
67027;DHT22;53933;52.142;11.738;2022-10-26T03:55:13;22.90;73.80
67027;DHT22;53933;52.142;11.738;2022-10-26T03:57:40;22.90;73.80
67027;DHT22;53933;52.142;11.738;2022-10-26T04:00:08;22.90;73.70
67027;DHT22;53933;52.142;11.738;2022-10-26T04:02:35;22.90;73.70
67027;DHT22;53933;52.142;11.738;2022-10-26T04:05:02;22.90;73.70
67027;DHT22;53933;52.142;11.738;2022-10-26T04:07:29;22.90;73.70
67027;DHT22;53933;52.142;11.738;2022-10-26T04:09:55;22.90;73.70
67027;DHT22;53933;52.142;11.738;2022-10-26T04:12:23;22.90;73.70
67027;DHT22;53933;52.142;11.738;2022-10-26T04:14:50;22.90;73.70
67027;DHT22;53933;52.142;11.738;2022-10-26T04:17:17;22.90;73.70
67027;DHT22;53933;52.142;11.738;2022-10-26T04:19:43;22.90;73.60
67027;DHT22;53933;52.142;11.738;2022-10-26T04:22:10;22.90;73.70
67027;DHT22;53933;52.142;11.738;2022-10-26T04:24:36;22.90;73.70
67027;DHT22;53933;52.142;11.738;2022-10-26T04:27:03;22.90;73.60
67027;DHT22;53933;52.142;11.738;2022-10-26T04:29:31;22.90;73.70
67027;DHT22;53933;52.142;11.738;2022-10-26T04:31:58;22.90;73.60
67027;DHT22;53933;52.142;11.738;2022-10-26T04:34:25;22.90;73.70
67027;DHT22;53933;52.142;11.738;2022-10-26T04:36:51;22.90;73.70
67027;DHT22;53933;52.142;11.738;2022-10-26T04:39:18;22.90;73.70
67027;DHT22;53933;52.142;11.738;2022-10-26T04:41:45;22.90;73.60
67027;DHT22;53933;52.142;11.738;2022-10-26T04:44:11;22.90;73.60
67027;DHT22;53933;52.142;11.738;2022-10-26T04:46:39;22.90;73.60
67027;DHT22;53933;52.142;11.738;2022-10-26T04:49:06;22.90;73.60
67027;DHT22;53933;52.142;11.738;2022-10-26T04:51:33;22.90;73.60
67027;DHT22;53933;52.142;11.738;2022-10-26T04:53:59;22.90;73.60
67027;DHT22;53933;52.142;11.738;2022-10-26T04:56:27;22.90;73.60
67027;DHT22;53933;52.142;11.738;2022-10-26T04:58:54;22.90;73.60
67027;DHT22;53933;52.142;11.738;2022-10-26T05:01:21;22.90;73.60
67027;DHT22;53933;52.142;11.738;2022-10-26T05:03:49;22.90;73.60
67027;DHT22;53933;52.142;11.738;2022-10-26T05:06:17;22.80;73.50
67027;DHT22;53933;52.142;11.738;2022-10-26T05:08:44;22.90;73.60
67027;DHT22;53933;52.142;11.738;2022-10-26T05:11:11;22.90;73.60
67027;DHT22;53933;52.142;11.738;2022-10-26T05:13:38;22.80;73.60
67027;DHT22;53933;52.142;11.738;2022-10-26T05:16:05;22.90;73.60
67027;DHT22;53933;52.142;11.738;2022-10-26T05:18:32;22.90;73.70
67027;DHT22;53933;52.142;11.738;2022-10-26T05:21:00;22.90;73.60
67027;DHT22;53933;52.142;11.738;2022-10-26T05:23:26;22.90;73.60
67027;DHT22;53933;52.142;11.738;2022-10-26T05:25:54;22.90;73.60
67027;DHT22;53933;52.142;11.738;2022-10-26T05:28:21;22.90;73.50
67027;DHT22;53933;52.142;11.738;2022-10-26T05:30:47;22.80;73.50
67027;DHT22;53933;52.142;11.738;2022-10-26T05:33:14;22.90;73.50
67027;DHT22;53933;52.142;11.738;2022-10-26T05:35:41;22.90;73.60
67027;DHT22;53933;52.142;11.738;2022-10-26T05:38:11;22.80;73.50
67027;DHT22;53933;52.142;11.738;2022-10-26T05:40:45;22.90;73.40
67027;DHT22;53933;52.142;11.738;2022-10-26T05:43:12;22.90;73.50
67027;DHT22;53933;52.142;11.738;2022-10-26T05:45:39;22.80;73.40
67027;DHT22;53933;52.142;11.738;2022-10-26T05:48:06;22.90;73.40
67027;DHT22;53933;52.142;11.738;2022-10-26T05:50:32;22.80;73.40
67027;DHT22;53933;52.142;11.738;2022-10-26T05:52:59;22.90;73.40
67027;DHT22;53933;52.142;11.738;2022-10-26T05:55:28;22.80;73.30
67027;DHT22;53933;52.142;11.738;2022-10-26T05:57:55;22.80;73.40
67027;DHT22;53933;52.142;11.738;2022-10-26T06:00:24;22.80;73.50
67027;DHT22;53933;52.142;11.738;2022-10-26T06:03:06;22.80;73.40
67027;DHT22;53933;52.142;11.738;2022-10-26T06:05:37;22.80;73.30
67027;DHT22;53933;52.142;11.738;2022-10-26T06:08:09;22.80;73.30
67027;DHT22;53933;52.142;11.738;2022-10-26T06:10:38;22.80;73.30
67027;DHT22;53933;52.142;11.738;2022-10-26T06:13:05;22.80;73.30
67027;DHT22;53933;52.142;11.738;2022-10-26T06:15:41;22.80;73.30
67027;DHT22;53933;52.142;11.738;2022-10-26T06:18:17;22.90;73.40
67027;DHT22;53933;52.142;11.738;2022-10-26T06:20:53;22.80;73.30
67027;DHT22;53933;52.142;11.738;2022-10-26T06:23:38;22.80;73.20
67027;DHT22;53933;52.142;11.738;2022-10-26T06:26:15;22.90;73.30
67027;DHT22;53933;52.142;11.738;2022-10-26T06:28:51;22.80;73.20
67027;DHT22;53933;52.142;11.738;2022-10-26T06:31:21;22.90;73.30
67027;DHT22;53933;52.142;11.738;2022-10-26T06:33:47;22.90;73.30
67027;DHT22;53933;52.142;11.738;2022-10-26T06:36:20;22.90;73.20
67027;DHT22;53933;52.142;11.738;2022-10-26T06:38:48;22.90;74.00
67027;DHT22;53933;52.142;11.738;2022-10-26T06:41:18;22.90;73.10
67027;DHT22;53933;52.142;11.738;2022-10-26T06:43:47;22.90;73.10
67027;DHT22;53933;52.142;11.738;2022-10-26T06:46:23;22.90;72.90
67027;DHT22;53933;52.142;11.738;2022-10-26T06:48:56;22.90;72.90
67027;DHT22;53933;52.142;11.738;2022-10-26T06:51:24;23.00;72.90
67027;DHT22;53933;52.142;11.738;2022-10-26T06:53:58;22.90;72.80
67027;DHT22;53933;52.142;11.738;2022-10-26T06:56:27;22.90;72.70
67027;DHT22;53933;52.142;11.738;2022-10-26T06:58:55;22.90;72.70
67027;DHT22;53933;52.142;11.738;2022-10-26T07:01:26;23.00;72.70
67027;DHT22;53933;52.142;11.738;2022-10-26T07:03:53;23.00;72.60
67027;DHT22;53933;52.142;11.738;2022-10-26T07:06:19;23.00;72.50
67027;DHT22;53933;52.142;11.738;2022-10-26T07:08:46;23.00;72.40
67027;DHT22;53933;52.142;11.738;2022-10-26T07:11:13;23.00;72.30
67027;DHT22;53933;52.142;11.738;2022-10-26T07:13:41;23.10;72.10
67027;DHT22;53933;52.142;11.738;2022-10-26T07:16:08;23.10;72.00
67027;DHT22;53933;52.142;11.738;2022-10-26T07:18:34;23.20;71.90
67027;DHT22;53933;52.142;11.738;2022-10-26T07:21:01;23.20;71.90
67027;DHT22;53933;52.142;11.738;2022-10-26T07:23:28;23.20;71.90
67027;DHT22;53933;52.142;11.738;2022-10-26T07:25:54;23.20;71.80
67027;DHT22;53933;52.142;11.738;2022-10-26T07:28:21;23.20;71.80
67027;DHT22;53933;52.142;11.738;2022-10-26T07:30:49;23.20;71.70
67027;DHT22;53933;52.142;11.738;2022-10-26T07:33:16;23.20;71.70
67027;DHT22;53933;52.142;11.738;2022-10-26T07:35:43;23.30;71.60
67027;DHT22;53933;52.142;11.738;2022-10-26T07:38:11;23.30;71.60
67027;DHT22;53933;52.142;11.738;2022-10-26T07:40:38;23.30;71.50
67027;DHT22;53933;52.142;11.738;2022-10-26T07:43:05;23.30;71.50
67027;DHT22;53933;52.142;11.738;2022-10-26T07:45:32;23.30;71.40
67027;DHT22;53933;52.142;11.738;2022-10-26T07:48:01;23.30;71.30
67027;DHT22;53933;52.142;11.738;2022-10-26T07:50:27;23.40;71.10
67027;DHT22;53933;52.142;11.738;2022-10-26T07:52:54;23.60;70.80
67027;DHT22;53933;52.142;11.738;2022-10-26T07:55:21;23.70;70.40
67027;DHT22;53933;52.142;11.738;2022-10-26T07:57:47;23.80;69.80
67027;DHT22;53933;52.142;11.738;2022-10-26T08:00:14;24.00;69.30
67027;DHT22;53933;52.142;11.738;2022-10-26T08:02:41;24.20;68.50
67027;DHT22;53933;52.142;11.738;2022-10-26T08:05:09;24.50;67.80
67027;DHT22;53933;52.142;11.738;2022-10-26T08:07:40;24.70;67.10
67027;DHT22;53933;52.142;11.738;2022-10-26T08:10:08;24.80;66.40
67027;DHT22;53933;52.142;11.738;2022-10-26T08:12:35;25.00;65.90
67027;DHT22;53933;52.142;11.738;2022-10-26T08:15:03;25.20;65.40
67027;DHT22;53933;52.142;11.738;2022-10-26T08:17:30;25.30;64.90
67027;DHT22;53933;52.142;11.738;2022-10-26T08:19:57;25.50;64.60
67027;DHT22;53933;52.142;11.738;2022-10-26T08:22:25;25.60;64.20
67027;DHT22;53933;52.142;11.738;2022-10-26T08:24:54;25.70;63.80
67027;DHT22;53933;52.142;11.738;2022-10-26T08:27:20;25.80;63.50
67027;DHT22;53933;52.142;11.738;2022-10-26T08:29:47;25.70;63.50
67027;DHT22;53933;52.142;11.738;2022-10-26T08:32:13;25.80;63.60
67027;DHT22;53933;52.142;11.738;2022-10-26T08:34:40;25.90;63.30
67027;DHT22;53933;52.142;11.738;2022-10-26T08:37:07;26.10;62.80
67027;DHT22;53933;52.142;11.738;2022-10-26T08:39:35;26.30;62.00
67027;DHT22;53933;52.142;11.738;2022-10-26T08:42:05;26.60;61.20
67027;DHT22;53933;52.142;11.738;2022-10-26T08:44:35;26.90;60.50
67027;DHT22;53933;52.142;11.738;2022-10-26T08:47:09;27.00;59.90
67027;DHT22;53933;52.142;11.738;2022-10-26T08:49:41;27.10;59.60
67027;DHT22;53933;52.142;11.738;2022-10-26T08:52:14;27.30;59.40
67027;DHT22;53933;52.142;11.738;2022-10-26T08:54:47;27.50;59.00
67027;DHT22;53933;52.142;11.738;2022-10-26T08:57:20;27.70;58.50
67027;DHT22;53933;52.142;11.738;2022-10-26T08:59:52;27.80;58.00
67027;DHT22;53933;52.142;11.738;2022-10-26T09:02:20;28.00;57.70
67027;DHT22;53933;52.142;11.738;2022-10-26T09:04:49;28.10;57.50
67027;DHT22;53933;52.142;11.738;2022-10-26T09:07:39;28.20;57.20
67027;DHT22;53933;52.142;11.738;2022-10-26T09:10:22;28.20;57.10
67027;DHT22;53933;52.142;11.738;2022-10-26T09:12:56;28.30;57.00
67027;DHT22;53933;52.142;11.738;2022-10-26T09:15:36;28.40;56.70
67027;DHT22;53933;52.142;11.738;2022-10-26T09:18:15;28.50;56.40
67027;DHT22;53933;52.142;11.738;2022-10-26T09:20:51;28.60;56.10
67027;DHT22;53933;52.142;11.738;2022-10-26T09:23:30;28.70;55.90
67027;DHT22;53933;52.142;11.738;2022-10-26T09:26:02;28.90;55.80
67027;DHT22;53933;52.142;11.738;2022-10-26T09:28:33;28.90;55.60
67027;DHT22;53933;52.142;11.738;2022-10-26T09:31:02;29.00;55.40
67027;DHT22;53933;52.142;11.738;2022-10-26T09:33:32;29.10;55.30
67027;DHT22;53933;52.142;11.738;2022-10-26T09:36:03;29.10;55.10
67027;DHT22;53933;52.142;11.738;2022-10-26T09:38:33;29.20;55.10
67027;DHT22;53933;52.142;11.738;2022-10-26T09:41:04;29.20;55.00
67027;DHT22;53933;52.142;11.738;2022-10-26T09:43:36;29.20;54.90
67027;DHT22;53933;52.142;11.738;2022-10-26T09:46:04;28.90;55.50
67027;DHT22;53933;52.142;11.738;2022-10-26T09:48:35;28.80;55.90
67027;DHT22;53933;52.142;11.738;2022-10-26T09:51:04;28.90;55.80
67027;DHT22;53933;52.142;11.738;2022-10-26T09:53:31;29.00;55.50
67027;DHT22;53933;52.142;11.738;2022-10-26T09:56:02;29.10;55.40
67027;DHT22;53933;52.142;11.738;2022-10-26T09:58:33;29.10;55.20
67027;DHT22;53933;52.142;11.738;2022-10-26T10:01:01;29.10;55.10
67027;DHT22;53933;52.142;11.738;2022-10-26T10:03:29;29.20;55.10
67027;DHT22;53933;52.142;11.738;2022-10-26T10:06:14;29.10;55.10
67027;DHT22;53933;52.142;11.738;2022-10-26T10:08:41;29.10;55.20
67027;DHT22;53933;52.142;11.738;2022-10-26T10:11:11;29.00;55.30
67027;DHT22;53933;52.142;11.738;2022-10-26T10:13:39;28.90;55.50
67027;DHT22;53933;52.142;11.738;2022-10-26T10:16:10;28.80;55.70
67027;DHT22;53933;52.142;11.738;2022-10-26T10:18:39;28.60;56.00
67027;DHT22;53933;52.142;11.738;2022-10-26T10:21:06;28.50;56.40
67027;DHT22;53933;52.142;11.738;2022-10-26T10:23:36;28.30;56.80
67027;DHT22;53933;52.142;11.738;2022-10-26T10:26:06;28.10;57.20
67027;DHT22;53933;52.142;11.738;2022-10-26T10:28:34;27.90;57.70
67027;DHT22;53933;52.142;11.738;2022-10-26T10:31:03;27.70;58.10
67027;DHT22;53933;52.142;11.738;2022-10-26T10:33:36;27.60;58.50
67027;DHT22;53933;52.142;11.738;2022-10-26T10:36:06;27.50;58.90
67027;DHT22;53933;52.142;11.738;2022-10-26T10:38:42;27.20;59.20
67027;DHT22;53933;52.142;11.738;2022-10-26T10:41:16;27.10;60.50
67027;DHT22;53933;52.142;11.738;2022-10-26T10:43:48;26.90;60.40
67027;DHT22;53933;52.142;11.738;2022-10-26T10:46:20;26.70;60.80
67027;DHT22;53933;52.142;11.738;2022-10-26T10:48:52;26.70;61.10
67027;DHT22;53933;52.142;11.738;2022-10-26T10:51:21;26.60;61.10
67027;DHT22;53933;52.142;11.738;2022-10-26T10:53:51;26.60;61.40
67027;DHT22;53933;52.142;11.738;2022-10-26T10:56:30;26.60;61.50
67027;DHT22;53933;52.142;11.738;2022-10-26T10:59:11;26.60;61.40
67027;DHT22;53933;52.142;11.738;2022-10-26T11:01:47;26.50;61.60
67027;DHT22;53933;52.142;11.738;2022-10-26T11:04:35;26.40;61.90
67027;DHT22;53933;52.142;11.738;2022-10-26T11:07:06;26.40;62.10
67027;DHT22;53933;52.142;11.738;2022-10-26T11:09:38;26.30;62.40
67027;DHT22;53933;52.142;11.738;2022-10-26T11:12:09;26.20;62.60
67027;DHT22;53933;52.142;11.738;2022-10-26T11:14:42;26.10;62.90
67027;DHT22;53933;52.142;11.738;2022-10-26T11:17:15;26.00;63.20
67027;DHT22;53933;52.142;11.738;2022-10-26T11:19:46;25.90;63.40
67027;DHT22;53933;52.142;11.738;2022-10-26T11:22:21;25.80;63.60
67027;DHT22;53933;52.142;11.738;2022-10-26T11:24:55;25.80;64.70
67027;DHT22;53933;52.142;11.738;2022-10-26T11:27:25;25.80;64.00
67027;DHT22;53933;52.142;11.738;2022-10-26T11:30:00;25.70;64.10
67027;DHT22;53933;52.142;11.738;2022-10-26T11:32:31;25.70;64.20
67027;DHT22;53933;52.142;11.738;2022-10-26T11:35:04;25.70;64.40
67027;DHT22;53933;52.142;11.738;2022-10-26T11:37:43;25.60;64.70
67027;DHT22;53933;52.142;11.738;2022-10-26T11:40:19;25.60;65.00
67027;DHT22;53933;52.142;11.738;2022-10-26T11:42:51;25.60;65.00
67027;DHT22;53933;52.142;11.738;2022-10-26T11:45:24;25.50;65.20
67027;DHT22;53933;52.142;11.738;2022-10-26T11:47:56;25.40;65.50
67027;DHT22;53933;52.142;11.738;2022-10-26T11:50:28;25.40;65.80
67027;DHT22;53933;52.142;11.738;2022-10-26T11:53:02;25.40;65.70
67027;DHT22;53933;52.142;11.738;2022-10-26T11:55:33;25.40;65.80
67027;DHT22;53933;52.142;11.738;2022-10-26T11:58:00;25.40;65.80
67027;DHT22;53933;52.142;11.738;2022-10-26T12:00:31;25.40;65.90
67027;DHT22;53933;52.142;11.738;2022-10-26T12:03:03;25.30;65.90
67027;DHT22;53933;52.142;11.738;2022-10-26T12:05:35;25.30;66.00
67027;DHT22;53933;52.142;11.738;2022-10-26T12:08:12;25.30;66.00
67027;DHT22;53933;52.142;11.738;2022-10-26T12:10:42;25.30;66.10
67027;DHT22;53933;52.142;11.738;2022-10-26T12:13:19;25.30;66.20
67027;DHT22;53933;52.142;11.738;2022-10-26T12:15:55;25.20;66.20
67027;DHT22;53933;52.142;11.738;2022-10-26T12:18:29;25.30;66.30
67027;DHT22;53933;52.142;11.738;2022-10-26T12:21:00;25.20;66.40
67027;DHT22;53933;52.142;11.738;2022-10-26T12:23:29;25.20;66.50
67027;DHT22;53933;52.142;11.738;2022-10-26T12:29:24;25.10;66.60
67027;DHT22;53933;52.142;11.738;2022-10-26T12:31:53;25.10;66.80
67027;DHT22;53933;52.142;11.738;2022-10-26T12:34:22;25.10;66.80
67027;DHT22;53933;52.142;11.738;2022-10-26T12:37:09;25.10;66.90
67027;DHT22;53933;52.142;11.738;2022-10-26T12:39:38;25.00;66.80
67027;DHT22;53933;52.142;11.738;2022-10-26T12:42:27;25.00;66.90
67027;DHT22;53933;52.142;11.738;2022-10-26T12:48:04;25.00;67.10
67027;DHT22;53933;52.142;11.738;2022-10-26T12:50:45;25.00;67.30
67027;DHT22;53933;52.142;11.738;2022-10-26T12:53:14;24.90;67.20
67027;DHT22;53933;52.142;11.738;2022-10-26T12:55:54;24.90;67.30
67027;DHT22;53933;52.142;11.738;2022-10-26T12:58:40;24.90;67.30
67027;DHT22;53933;52.142;11.738;2022-10-26T13:01:40;24.90;67.10
67027;DHT22;53933;52.142;11.738;2022-10-26T13:04:35;25.00;67.20
67027;DHT22;53933;52.142;11.738;2022-10-26T13:07:15;24.90;67.10
67027;DHT22;53933;52.142;11.738;2022-10-26T13:09:44;25.00;67.30
67027;DHT22;53933;52.142;11.738;2022-10-26T13:12:11;24.90;67.20
67027;DHT22;53933;52.142;11.738;2022-10-26T13:14:48;24.90;67.30
67027;DHT22;53933;52.142;11.738;2022-10-26T13:17:23;24.80;67.40
67027;DHT22;53933;52.142;11.738;2022-10-26T13:19:56;24.80;67.50
67027;DHT22;53933;52.142;11.738;2022-10-26T13:22:23;24.80;67.70
67027;DHT22;53933;52.142;11.738;2022-10-26T13:24:52;24.90;67.70
67027;DHT22;53933;52.142;11.738;2022-10-26T13:27:39;24.90;67.20
67027;DHT22;53933;52.142;11.738;2022-10-26T13:30:45;24.90;67.20
67027;DHT22;53933;52.142;11.738;2022-10-26T13:33:25;24.90;67.30
67027;DHT22;53933;52.142;11.738;2022-10-26T13:35:57;24.90;67.40
67027;DHT22;53933;52.142;11.738;2022-10-26T13:38:30;24.80;67.40
67027;DHT22;53933;52.142;11.738;2022-10-26T13:41:09;24.80;67.60
67027;DHT22;53933;52.142;11.738;2022-10-26T13:43:40;24.80;67.70
67027;DHT22;53933;52.142;11.738;2022-10-26T13:46:25;24.80;67.80
67027;DHT22;53933;52.142;11.738;2022-10-26T13:48:54;24.80;67.80
67027;DHT22;53933;52.142;11.738;2022-10-26T13:51:33;24.70;67.80
67027;DHT22;53933;52.142;11.738;2022-10-26T13:54:03;24.70;68.00
67027;DHT22;53933;52.142;11.738;2022-10-26T13:56:35;24.70;68.10
67027;DHT22;53933;52.142;11.738;2022-10-26T13:59:08;24.70;68.10
67027;DHT22;53933;52.142;11.738;2022-10-26T14:01:36;24.60;68.20
67027;DHT22;53933;52.142;11.738;2022-10-26T14:04:13;24.60;68.20
67027;DHT22;53933;52.142;11.738;2022-10-26T14:06:46;24.60;68.20
67027;DHT22;53933;52.142;11.738;2022-10-26T14:09:16;24.60;68.20
67027;DHT22;53933;52.142;11.738;2022-10-26T14:11:47;24.60;68.40
67027;DHT22;53933;52.142;11.738;2022-10-26T14:14:18;24.50;68.30
67027;DHT22;53933;52.142;11.738;2022-10-26T14:16:48;24.60;68.40
67027;DHT22;53933;52.142;11.738;2022-10-26T14:19:20;24.50;68.50
67027;DHT22;53933;52.142;11.738;2022-10-26T14:21:49;24.50;68.60
67027;DHT22;53933;52.142;11.738;2022-10-26T14:24:20;24.50;68.70
67027;DHT22;53933;52.142;11.738;2022-10-26T14:26:47;24.50;68.80
67027;DHT22;53933;52.142;11.738;2022-10-26T14:29:16;24.40;68.90
67027;DHT22;53933;52.142;11.738;2022-10-26T14:31:43;24.40;68.90
67027;DHT22;53933;52.142;11.738;2022-10-26T14:34:11;24.40;69.00
67027;DHT22;53933;52.142;11.738;2022-10-26T14:36:40;24.40;69.00
67027;DHT22;53933;52.142;11.738;2022-10-26T14:39:16;24.40;69.10
67027;DHT22;53933;52.142;11.738;2022-10-26T14:41:44;24.30;69.10
67027;DHT22;53933;52.142;11.738;2022-10-26T14:44:15;24.30;69.10
67027;DHT22;53933;52.142;11.738;2022-10-26T14:46:43;24.30;70.00
67027;DHT22;53933;52.142;11.738;2022-10-26T14:49:16;24.30;69.20
67027;DHT22;53933;52.142;11.738;2022-10-26T14:51:44;24.30;69.20
67027;DHT22;53933;52.142;11.738;2022-10-26T14:54:20;24.30;69.30
67027;DHT22;53933;52.142;11.738;2022-10-26T14:56:48;24.20;69.30
67027;DHT22;53933;52.142;11.738;2022-10-26T14:59:20;24.20;69.40
67027;DHT22;53933;52.142;11.738;2022-10-26T15:01:52;24.20;69.60
67027;DHT22;53933;52.142;11.738;2022-10-26T15:04:28;24.20;69.60
67027;DHT22;53933;52.142;11.738;2022-10-26T15:07:01;24.20;69.60
67027;DHT22;53933;52.142;11.738;2022-10-26T15:09:32;24.20;69.70
67027;DHT22;53933;52.142;11.738;2022-10-26T15:12:03;24.20;69.80
67027;DHT22;53933;52.142;11.738;2022-10-26T15:14:30;24.10;69.70
67027;DHT22;53933;52.142;11.738;2022-10-26T15:16:57;24.10;69.80
67027;DHT22;53933;52.142;11.738;2022-10-26T15:19:25;24.10;69.80
67027;DHT22;53933;52.142;11.738;2022-10-26T15:21:52;24.10;69.80
67027;DHT22;53933;52.142;11.738;2022-10-26T15:24:31;24.10;70.00
67027;DHT22;53933;52.142;11.738;2022-10-26T15:26:59;24.10;70.00
67027;DHT22;53933;52.142;11.738;2022-10-26T15:29:41;24.10;70.00
67027;DHT22;53933;52.142;11.738;2022-10-26T15:32:35;24.00;70.00
67027;DHT22;53933;52.142;11.738;2022-10-26T15:35:28;24.00;70.10
67027;DHT22;53933;52.142;11.738;2022-10-26T15:37:56;24.00;70.10
67027;DHT22;53933;52.142;11.738;2022-10-26T15:40:25;24.00;70.10
67027;DHT22;53933;52.142;11.738;2022-10-26T15:42:54;24.00;70.10
67027;DHT22;53933;52.142;11.738;2022-10-26T15:45:22;24.00;70.20
67027;DHT22;53933;52.142;11.738;2022-10-26T15:47:51;24.00;70.20